createdAt,value
2022-12-15T00:02:22.613Z,21.13
2022-12-15T00:05:09.239Z,18.05
2022-12-15T00:07:55.402Z,18.05
2022-12-15T00:13:32.228Z,19.70
2022-12-15T00:16:18.686Z,20.35
2022-12-15T00:24:37.300Z,16.77
2022-12-15T00:27:23.572Z,18.02
2022-12-15T00:32:56.024Z,15.57
2022-12-15T00:38:30.719Z,14.80
2022-12-15T00:41:00.978Z,15.35
2022-12-15T00:43:33.017Z,16.40
2022-12-15T00:46:20.131Z,19.60
2022-12-15T00:48:47.929Z,17.45
2022-12-15T00:51:15.899Z,17.23
2022-12-15T00:54:02.259Z,18.50
2022-12-15T00:56:48.701Z,18.42
2022-12-15T00:59:35.621Z,18.08
2022-12-15T01:02:22.348Z,16.42
2022-12-15T01:05:08.833Z,17.38
2022-12-15T01:07:55.612Z,17.83
2022-12-15T01:10:41.584Z,19.83
2022-12-15T01:13:32.704Z,18.58
2022-12-15T01:16:19.315Z,19.67
2022-12-15T01:19:05.619Z,20.38
2022-12-15T01:24:00.617Z,20.30
2022-12-15T01:26:28.193Z,20.35
2022-12-15T01:28:55.761Z,20.60
2022-12-15T01:31:23.399Z,19.33
2022-12-15T01:33:54.950Z,18.83
2022-12-15T01:36:22.520Z,20.75
2022-12-15T01:38:54.109Z,18.58
2022-12-15T01:41:22.507Z,23.05
2022-12-15T01:43:50.113Z,20.70
2022-12-15T01:46:22.461Z,20.10
2022-12-15T01:49:13.333Z,18.52
2022-12-15T01:51:45.003Z,19.10
2022-12-15T01:54:21.359Z,18.98
2022-12-15T01:56:52.494Z,21.40
2022-12-15T01:59:34.426Z,20.85
2022-12-15T02:02:02.592Z,20.67
2022-12-15T02:04:31.252Z,21.45
2022-12-15T02:06:58.864Z,20.75
2022-12-15T02:09:27.688Z,20.42
2022-12-15T02:12:16.233Z,20.75
2022-12-15T02:14:52.354Z,22.58
2022-12-15T02:17:38.234Z,19.85
2022-12-15T02:20:35.371Z,19.58
2022-12-15T02:23:20.562Z,20.33
2022-12-15T02:25:56.044Z,18.88
2022-12-15T02:28:45.324Z,22.63
2022-12-15T02:31:59.270Z,21.98
2022-12-15T02:34:41.509Z,22.58
2022-12-15T02:37:13.587Z,21.15
2022-12-15T02:39:41.139Z,19.27
2022-12-15T02:42:10.901Z,20.27
2022-12-15T02:44:43.616Z,15.48
2022-12-15T02:47:46.152Z,17.42
2022-12-15T02:50:43.267Z,19.80
2022-12-15T02:53:36.227Z,18.63
2022-12-15T02:56:39.107Z,22.75
2022-12-15T02:59:15.716Z,21.25
2022-12-15T03:02:06.102Z,18.17
2022-12-15T03:04:34.010Z,18.92
2022-12-15T03:07:04.799Z,17.58
2022-12-15T03:09:32.940Z,17.27
2022-12-15T03:12:00.961Z,19.77
2022-12-15T03:14:28.957Z,21.05
2022-12-15T03:16:56.605Z,21.08
2022-12-15T03:19:24.394Z,21.27
2022-12-15T03:21:52.418Z,21.20
2022-12-15T03:24:20.262Z,23.10
2022-12-15T03:26:50.091Z,17.92
2022-12-15T03:29:18.206Z,22.38
2022-12-15T03:31:46.172Z,21.23
2022-12-15T03:34:17.665Z,20.08
2022-12-15T03:36:45.237Z,19.67
2022-12-15T03:39:12.801Z,14.65
2022-12-15T03:41:41.606Z,18.90
2022-12-15T03:44:09.459Z,18.45
2022-12-15T03:46:37.017Z,17.38
2022-12-15T03:49:04.709Z,24.27
2022-12-15T03:51:32.644Z,20.52
2022-12-15T03:54:00.257Z,20.77
2022-12-15T03:56:27.974Z,20.95
2022-12-15T03:58:55.538Z,19.80
2022-12-15T04:01:32.046Z,19.27
2022-12-15T04:04:01.651Z,20.90
2022-12-15T04:06:31.000Z,19.88
2022-12-15T04:08:58.994Z,16.85
2022-12-15T04:11:26.773Z,18.08
2022-12-15T04:13:54.391Z,21.05
2022-12-15T04:16:22.046Z,19.30
2022-12-15T04:19:09.602Z,18.33
2022-12-15T04:21:37.182Z,20.20
2022-12-15T04:24:23.826Z,24.27
2022-12-15T04:27:09.984Z,22.20
2022-12-15T04:29:55.855Z,24.88
2022-12-15T04:32:42.373Z,20.77
2022-12-15T04:35:29.717Z,20.05
2022-12-15T04:38:15.669Z,23.67
2022-12-15T04:41:01.808Z,22.15
2022-12-15T04:46:34.133Z,21.45
2022-12-15T04:49:19.988Z,22.10
2022-12-15T04:52:05.915Z,24.23
2022-12-15T04:54:51.936Z,23.95
2022-12-15T04:57:37.959Z,20.48
2022-12-15T05:00:24.437Z,21.30
2022-12-15T05:03:13.708Z,23.77
2022-12-15T05:06:04.204Z,24.65
2022-12-15T05:08:50.442Z,18.50
2022-12-15T05:11:37.062Z,17.30
2022-12-15T05:14:23.126Z,21.15
2022-12-15T05:17:09.200Z,25.52
2022-12-15T05:19:55.156Z,21.50
2022-12-15T05:22:41.247Z,21.27
2022-12-15T05:25:27.723Z,18.98
2022-12-15T05:28:13.614Z,19.90
2022-12-15T05:30:59.809Z,19.80
2022-12-15T05:35:58.146Z,20.33
2022-12-15T05:38:25.803Z,19.90
2022-12-15T05:40:53.365Z,19.27
2022-12-15T05:43:26.183Z,18.17
2022-12-15T05:45:54.289Z,22.48
2022-12-15T05:48:22.173Z,19.40
2022-12-15T05:50:50.589Z,25.83
2022-12-15T05:53:18.194Z,22.83
2022-12-15T05:55:45.805Z,27.25
2022-12-15T05:58:13.384Z,23.63
2022-12-15T06:00:40.984Z,20.83
2022-12-15T06:03:08.639Z,27.20
2022-12-15T06:05:36.223Z,25.27
2022-12-15T06:08:03.926Z,21.65
2022-12-15T06:10:31.463Z,23.35
2022-12-15T06:12:59.045Z,21.77
2022-12-15T06:15:26.851Z,20.23
2022-12-15T06:17:55.870Z,21.13
2022-12-15T06:20:24.282Z,23.05
2022-12-15T06:22:51.857Z,21.60
2022-12-15T06:25:19.451Z,18.20
2022-12-15T06:27:46.999Z,17.17
2022-12-15T06:30:16.143Z,17.85
2022-12-15T06:32:43.672Z,17.33
2022-12-15T06:35:11.258Z,19.55
2022-12-15T06:37:38.836Z,18.60
2022-12-15T06:40:07.047Z,22.52
2022-12-15T06:42:34.575Z,20.08
2022-12-15T06:45:02.231Z,19.48
2022-12-15T06:47:29.772Z,18.30
2022-12-15T06:49:57.536Z,23.45
2022-12-15T06:52:25.118Z,21.08
2022-12-15T06:54:52.786Z,20.05
2022-12-15T06:57:20.354Z,20.05
2022-12-15T06:59:47.907Z,26.05
2022-12-15T07:02:20.073Z,22.38
2022-12-15T07:04:49.999Z,23.13
2022-12-15T07:07:17.576Z,22.80
2022-12-15T07:09:45.197Z,18.00
2022-12-15T07:12:13.349Z,22.10
2022-12-15T07:14:40.936Z,16.45
2022-12-15T07:17:10.941Z,22.42
2022-12-15T07:19:38.487Z,24.42
2022-12-15T07:22:06.162Z,23.52
2022-12-15T07:24:33.768Z,23.40
2022-12-15T07:27:01.301Z,27.85
2022-12-15T07:29:28.861Z,26.23
2022-12-15T07:31:56.468Z,21.80
2022-12-15T07:34:24.163Z,26.50
2022-12-15T07:36:52.613Z,24.10
2022-12-15T07:39:21.163Z,19.65
2022-12-15T07:41:48.726Z,25.77
2022-12-15T07:44:17.183Z,25.73
2022-12-15T07:46:49.255Z,24.35
2022-12-15T07:49:17.778Z,22.42
2022-12-15T07:51:45.550Z,21.55
2022-12-15T07:54:13.985Z,22.38
2022-12-15T07:56:41.993Z,26.02
2022-12-15T07:59:10.092Z,21.52
2022-12-15T08:01:37.803Z,23.30
2022-12-15T08:04:05.759Z,23.70
2022-12-15T08:06:33.689Z,27.48
2022-12-15T08:09:01.250Z,24.65
2022-12-15T08:11:29.246Z,22.75
2022-12-15T08:14:07.773Z,26.70
2022-12-15T08:16:38.017Z,25.98
2022-12-15T08:19:06.509Z,22.13
2022-12-15T08:21:34.403Z,27.55
2022-12-15T08:24:02.270Z,25.40
2022-12-15T08:26:30.980Z,26.00
2022-12-15T08:31:53.790Z,22.90
2022-12-15T08:34:22.159Z,28.73
2022-12-15T08:36:49.951Z,25.48
2022-12-15T08:39:17.650Z,30.08
2022-12-15T08:41:45.579Z,34.10
2022-12-15T08:44:13.353Z,27.58
2022-12-15T08:46:40.965Z,31.25
2022-12-15T08:49:08.774Z,28.60
2022-12-15T08:51:36.346Z,27.65
2022-12-15T08:54:03.958Z,23.65
2022-12-15T08:56:31.678Z,33.35
2022-12-15T08:59:01.361Z,31.17
2022-12-15T09:01:32.004Z,30.50
2022-12-15T09:04:01.359Z,30.45
2022-12-15T09:06:35.406Z,30.08
2022-12-15T09:09:07.494Z,26.85
2022-12-15T09:11:35.436Z,29.50
2022-12-15T09:14:03.495Z,30.27
2022-12-15T09:16:31.484Z,25.95
2022-12-15T09:19:00.323Z,29.40
2022-12-15T09:21:29.630Z,25.88
2022-12-15T09:24:01.345Z,27.95
2022-12-15T09:26:31.223Z,27.13
2022-12-15T09:28:58.980Z,27.13
2022-12-15T09:31:29.037Z,24.05
2022-12-15T09:33:59.180Z,27.77
2022-12-15T09:36:27.324Z,29.10
2022-12-15T09:38:55.277Z,24.67
2022-12-15T09:41:28.812Z,25.42
2022-12-15T09:43:56.804Z,25.38
2022-12-15T09:46:32.801Z,26.55
2022-12-15T09:49:04.732Z,29.02
2022-12-15T09:51:41.582Z,25.05
2022-12-15T09:54:11.049Z,25.88
2022-12-15T09:56:50.067Z,26.77
2022-12-15T09:59:31.319Z,22.88
2022-12-15T10:02:10.974Z,28.60
2022-12-15T10:04:56.839Z,32.85
2022-12-15T10:07:28.173Z,24.63
2022-12-15T10:09:56.291Z,25.52
2022-12-15T10:12:30.883Z,26.70
2022-12-15T10:15:06.754Z,29.70
2022-12-15T10:17:54.851Z,25.60
2022-12-15T10:20:24.480Z,27.90
2022-12-15T10:22:52.055Z,26.80
2022-12-15T10:25:30.168Z,27.40
2022-12-15T10:28:16.477Z,23.38
2022-12-15T10:30:54.823Z,30.60
2022-12-15T10:33:28.465Z,27.23
2022-12-15T10:35:56.814Z,26.75
2022-12-15T10:38:38.485Z,30.40
2022-12-15T10:41:08.883Z,29.25
2022-12-15T10:43:38.403Z,27.02
2022-12-15T10:46:19.408Z,23.65
2022-12-15T10:48:52.083Z,22.33
2022-12-15T10:51:37.104Z,25.60
2022-12-15T10:54:07.001Z,33.53
2022-12-15T10:56:35.778Z,32.38
2022-12-15T10:59:23.812Z,33.63
2022-12-15T11:01:51.938Z,28.73
2022-12-15T11:05:02.085Z,26.90
2022-12-15T11:07:36.457Z,24.38
2022-12-15T11:10:18.571Z,24.48
2022-12-15T11:12:58.791Z,26.08
2022-12-15T11:15:37.806Z,27.73
2022-12-15T11:18:20.306Z,23.60
2022-12-15T11:21:15.427Z,24.77
2022-12-15T11:23:55.317Z,20.40
2022-12-15T11:26:32.370Z,30.02
2022-12-15T11:29:20.178Z,23.13
2022-12-15T11:31:49.608Z,29.20
2022-12-15T11:34:31.333Z,21.13
2022-12-15T11:37:16.910Z,23.00
2022-12-15T11:40:17.485Z,24.52
2022-12-15T11:42:51.013Z,20.00
2022-12-15T11:45:30.604Z,25.65
2022-12-15T11:48:19.782Z,26.30
2022-12-15T11:51:06.942Z,26.92
2022-12-15T11:54:03.353Z,27.58
2022-12-15T11:56:34.231Z,27.30
2022-12-15T11:59:14.299Z,26.58
2022-12-15T12:02:03.786Z,30.02
2022-12-15T12:04:43.361Z,28.75
2022-12-15T12:07:19.842Z,27.73
2022-12-15T12:12:37.983Z,26.30
2022-12-15T12:15:17.417Z,23.15
2022-12-15T12:17:52.262Z,22.38
2022-12-15T12:20:33.834Z,21.77
2022-12-15T12:23:10.140Z,22.90
2022-12-15T12:25:47.374Z,25.92
2022-12-15T12:28:27.600Z,23.48
2022-12-15T12:30:57.636Z,28.25
2022-12-15T12:33:48.577Z,25.52
2022-12-15T12:36:17.093Z,21.60
2022-12-15T12:38:50.672Z,26.08
2022-12-15T12:41:41.295Z,20.58
2022-12-15T12:44:18.012Z,27.02
2022-12-15T12:46:50.630Z,23.10
2022-12-15T12:49:28.976Z,25.60
2022-12-15T12:51:59.632Z,30.85
2022-12-15T12:54:36.100Z,29.98
2022-12-15T12:59:48.855Z,28.17
2022-12-15T13:04:59.976Z,21.88
2022-12-15T13:07:38.721Z,28.10
2022-12-15T13:10:09.682Z,25.38
2022-12-15T13:12:51.610Z,14.50
2022-12-15T13:15:29.034Z,17.23
2022-12-15T13:18:11.603Z,22.85
2022-12-15T13:20:41.130Z,25.98
2022-12-15T13:23:24.535Z,24.25
2022-12-15T13:26:01.969Z,34.67
2022-12-15T13:28:35.905Z,26.13
2022-12-15T13:31:21.616Z,28.02
2022-12-15T13:33:52.726Z,22.85
2022-12-15T13:36:41.199Z,25.40
2022-12-15T13:39:17.789Z,25.42
2022-12-15T13:42:32.804Z,21.40
2022-12-15T13:44:57.480Z,26.92
2022-12-15T13:47:31.193Z,26.98
2022-12-15T13:50:11.065Z,19.40
2022-12-15T13:53:18.333Z,18.48
2022-12-15T13:55:56.510Z,28.67
2022-12-15T13:58:25.104Z,25.98
2022-12-15T14:00:57.385Z,21.98
2022-12-15T14:03:25.385Z,23.05
2022-12-15T14:05:54.841Z,26.88
2022-12-15T14:08:24.154Z,27.08
2022-12-15T14:10:57.214Z,22.65
2022-12-15T14:13:25.664Z,29.92
2022-12-15T14:15:56.170Z,23.70
2022-12-15T14:18:30.669Z,25.02
2022-12-15T14:20:59.324Z,29.45
2022-12-15T14:23:29.601Z,27.80
2022-12-15T14:26:06.961Z,28.63
2022-12-15T14:28:36.721Z,29.05
2022-12-15T14:31:18.391Z,30.23
2022-12-15T14:33:50.539Z,28.92
2022-12-15T14:36:20.135Z,25.67
2022-12-15T14:38:56.866Z,26.10
2022-12-15T14:41:36.512Z,37.22
2022-12-15T14:44:30.686Z,32.10
2022-12-15T14:46:54.972Z,28.63
2022-12-15T14:49:28.472Z,30.42
2022-12-15T14:52:02.700Z,31.80
2022-12-15T14:54:38.742Z,31.38
2022-12-15T14:57:21.024Z,29.70
2022-12-15T14:59:49.150Z,30.05
2022-12-15T15:02:24.984Z,30.80
2022-12-15T15:05:07.728Z,28.63
2022-12-15T15:07:36.279Z,29.23
2022-12-15T15:10:16.875Z,28.83
2022-12-15T15:12:46.442Z,29.30
2022-12-15T15:15:19.228Z,29.65
2022-12-15T15:17:52.699Z,27.13
2022-12-15T15:20:24.010Z,27.15
2022-12-15T15:23:12.424Z,33.10
2022-12-15T15:26:01.882Z,29.90
2022-12-15T15:28:40.163Z,29.98
2022-12-15T15:31:28.523Z,28.45
2022-12-15T15:33:57.924Z,29.67
2022-12-15T15:36:32.887Z,30.25
2022-12-15T15:39:01.321Z,30.70
2022-12-15T15:41:33.373Z,30.17
2022-12-15T15:44:01.921Z,30.33
2022-12-15T15:46:31.782Z,31.23
2022-12-15T15:49:07.542Z,31.67
2022-12-15T15:51:35.840Z,30.42
2022-12-15T15:54:06.534Z,26.75
2022-12-15T15:56:35.264Z,29.83
2022-12-15T15:59:13.537Z,34.95
2022-12-15T16:01:41.465Z,31.75
2022-12-15T16:04:09.333Z,30.88
2022-12-15T16:06:42.083Z,32.20
2022-12-15T16:09:15.277Z,32.92
2022-12-15T16:11:42.912Z,37.50
2022-12-15T16:14:15.975Z,32.75
2022-12-15T16:16:43.910Z,36.13
2022-12-15T16:19:14.636Z,37.42
2022-12-15T16:21:43.543Z,32.83
2022-12-15T16:24:16.135Z,33.45
2022-12-15T16:26:48.749Z,33.75
2022-12-15T16:29:18.595Z,34.97
2022-12-15T16:31:46.638Z,34.50
2022-12-15T16:34:16.649Z,31.13
2022-12-15T16:36:44.778Z,35.67
2022-12-15T16:39:28.950Z,34.75
2022-12-15T16:41:57.443Z,30.77
2022-12-15T16:44:26.581Z,32.00
2022-12-15T16:46:54.298Z,33.85
2022-12-15T16:49:22.350Z,33.15
2022-12-15T16:51:53.754Z,29.55
2022-12-15T16:54:24.610Z,31.48
2022-12-15T16:56:53.769Z,32.58
2022-12-15T16:59:34.953Z,34.95
2022-12-15T17:02:27.066Z,36.25
2022-12-15T17:04:55.619Z,31.70
2022-12-15T17:07:24.795Z,30.95
2022-12-15T17:09:52.767Z,30.88
2022-12-15T17:12:20.392Z,29.77
2022-12-15T17:14:48.106Z,33.90
2022-12-15T17:17:17.435Z,28.77
2022-12-15T17:20:11.711Z,33.30
2022-12-15T17:22:33.384Z,27.63
2022-12-15T17:25:01.084Z,29.30
2022-12-15T17:27:29.591Z,32.22
2022-12-15T17:29:59.884Z,32.45
2022-12-15T17:32:27.563Z,28.73
2022-12-15T17:34:55.172Z,31.40
2022-12-15T17:37:26.951Z,28.88
2022-12-15T17:39:56.857Z,31.80
2022-12-15T17:42:24.433Z,30.33
2022-12-15T17:44:52.109Z,30.60
2022-12-15T17:47:19.812Z,33.90
2022-12-15T17:49:47.503Z,35.80
2022-12-15T17:52:23.479Z,37.75
2022-12-15T17:54:51.724Z,39.45
2022-12-15T17:57:19.314Z,39.22
2022-12-15T17:59:47.319Z,37.15
2022-12-15T18:02:15.476Z,36.55
2022-12-15T18:04:43.907Z,33.88
2022-12-15T18:07:22.989Z,34.85
2022-12-15T18:09:51.561Z,35.60
2022-12-15T18:12:22.401Z,35.75
2022-12-15T18:14:50.274Z,25.92
2022-12-15T18:17:17.896Z,31.33
2022-12-15T18:19:45.580Z,35.75
2022-12-15T18:22:23.450Z,29.73
2022-12-15T18:24:52.849Z,27.83
2022-12-15T18:27:26.344Z,29.75
2022-12-15T18:29:54.141Z,30.25
2022-12-15T18:32:26.847Z,33.83
2022-12-15T18:34:55.468Z,32.33
2022-12-15T18:37:28.230Z,27.88
2022-12-15T18:39:59.529Z,28.05
2022-12-15T18:42:31.701Z,37.78
2022-12-15T18:45:00.477Z,34.85
2022-12-15T18:47:28.118Z,36.45
2022-12-15T18:49:55.748Z,32.00
2022-12-15T18:52:27.579Z,41.22
2022-12-15T18:54:57.769Z,31.52
2022-12-15T18:57:32.329Z,29.98
2022-12-15T19:00:06.522Z,36.78
2022-12-15T19:02:34.355Z,35.40
2022-12-15T19:05:02.043Z,36.20
2022-12-15T19:07:29.735Z,35.03
2022-12-15T19:09:57.405Z,34.85
2022-12-15T19:12:25.475Z,34.25
2022-12-15T19:14:55.165Z,32.97
2022-12-15T19:17:42.558Z,30.58
2022-12-15T19:20:39.216Z,35.42
2022-12-15T19:23:07.801Z,26.92
2022-12-15T19:25:35.896Z,28.67
2022-12-15T19:28:03.588Z,27.70
2022-12-15T19:30:40.188Z,21.45
2022-12-15T19:33:12.923Z,26.20
2022-12-15T19:35:43.006Z,20.17
2022-12-15T19:38:19.525Z,23.75
2022-12-15T19:40:47.695Z,22.30
2022-12-15T19:43:17.310Z,25.63
2022-12-15T19:45:44.979Z,26.33
2022-12-15T19:48:12.696Z,26.80
2022-12-15T19:50:41.260Z,25.17
2022-12-15T19:53:24.077Z,24.77
2022-12-15T19:55:53.926Z,25.98
2022-12-15T19:58:28.646Z,25.77
2022-12-15T20:01:04.049Z,30.15
2022-12-15T20:03:32.558Z,25.15
2022-12-15T20:06:02.411Z,25.98
2022-12-15T20:08:38.113Z,29.52
2022-12-15T20:11:07.062Z,26.15
2022-12-15T20:13:35.250Z,28.00
2022-12-15T20:16:03.354Z,26.38
2022-12-15T20:18:31.308Z,27.30
2022-12-15T20:20:59.424Z,26.38
2022-12-15T20:23:27.438Z,32.03
2022-12-15T20:25:55.987Z,28.17
2022-12-15T20:28:26.173Z,29.77
2022-12-15T20:30:54.789Z,24.92
2022-12-15T20:33:22.462Z,30.05
2022-12-15T20:35:50.620Z,24.83
2022-12-15T20:38:31.938Z,26.75
2022-12-15T20:41:01.182Z,24.17
2022-12-15T20:43:31.628Z,25.75
2022-12-15T20:46:10.936Z,27.02
2022-12-15T20:48:38.835Z,29.25
2022-12-15T20:51:09.897Z,31.23
2022-12-15T20:53:38.998Z,26.42
2022-12-15T20:56:06.889Z,26.05
2022-12-15T20:58:40.270Z,36.33
2022-12-15T21:01:31.755Z,31.27
2022-12-15T21:04:01.559Z,29.13
2022-12-15T21:06:29.715Z,30.00
2022-12-15T21:08:57.629Z,27.48
2022-12-15T21:11:27.588Z,29.35
2022-12-15T21:14:03.700Z,27.48
2022-12-15T21:16:32.313Z,28.75
2022-12-15T21:19:19.724Z,30.20
2022-12-15T21:21:51.933Z,29.33
2022-12-15T21:24:22.910Z,29.75
2022-12-15T21:26:51.345Z,28.48
2022-12-15T21:29:21.699Z,29.35
2022-12-15T21:31:49.564Z,29.17
2022-12-15T21:34:17.394Z,29.15
2022-12-15T21:36:47.907Z,31.20
2022-12-15T21:39:30.968Z,33.22
2022-12-15T21:42:13.275Z,32.83
2022-12-15T21:44:41.601Z,32.63
2022-12-15T21:48:02.530Z,29.52
2022-12-15T21:50:30.090Z,33.15
2022-12-15T21:52:57.690Z,37.15
2022-12-15T21:55:26.994Z,29.67
2022-12-15T21:57:55.577Z,30.38
2022-12-15T22:00:23.614Z,27.65
2022-12-15T22:02:52.731Z,31.38
2022-12-15T22:05:32.221Z,31.05
2022-12-15T22:08:01.935Z,30.63
2022-12-15T22:10:29.507Z,34.17
2022-12-15T22:12:59.807Z,28.15
2022-12-15T22:15:29.636Z,33.35
2022-12-15T22:17:57.340Z,30.23
2022-12-15T22:20:25.546Z,32.03
2022-12-15T22:22:53.127Z,31.77
2022-12-15T22:25:23.355Z,32.97
2022-12-15T22:27:52.458Z,32.50
2022-12-15T22:30:26.529Z,31.70
2022-12-15T22:32:54.105Z,29.52
2022-12-15T22:35:24.544Z,30.00
2022-12-15T22:37:56.247Z,33.58
2022-12-15T22:40:24.611Z,35.25
2022-12-15T22:42:55.392Z,32.38
2022-12-15T22:45:26.741Z,33.75
2022-12-15T22:47:55.060Z,32.67
2022-12-15T22:50:26.641Z,26.00
2022-12-15T22:52:55.090Z,38.08
2022-12-15T22:55:24.376Z,30.38
2022-12-15T22:57:58.508Z,28.77
2022-12-15T23:00:26.266Z,26.80
2022-12-15T23:02:53.953Z,29.98
2022-12-15T23:05:21.590Z,31.92
2022-12-15T23:07:49.151Z,26.67
2022-12-15T23:10:37.157Z,29.95
2022-12-15T23:13:05.574Z,29.70
2022-12-15T23:15:52.180Z,26.05
2022-12-15T23:18:19.816Z,26.92
2022-12-15T23:20:47.417Z,27.50
2022-12-15T23:23:15.405Z,26.65
2022-12-15T23:25:43.575Z,30.60
2022-12-15T23:28:11.109Z,30.58
2022-12-15T23:30:38.864Z,28.92
2022-12-15T23:33:06.568Z,31.02
2022-12-15T23:35:34.190Z,31.50
2022-12-15T23:38:01.800Z,31.10
2022-12-15T23:40:29.362Z,28.05
2022-12-15T23:42:56.947Z,29.70
2022-12-15T23:45:24.601Z,33.38
2022-12-15T23:47:52.234Z,27.05
2022-12-15T23:50:21.733Z,28.67
2022-12-15T23:52:51.770Z,28.42
2022-12-15T23:55:19.673Z,29.10
2022-12-15T23:57:47.241Z,33.30
